Les Cayes, Haiti
Current Conditions -  °F | °C
As of 4:56 AM on Tuesday 21 Oct 2014 (Local Time) from MUGM Reporting Station
Few Clouds Few Clouds  
Wind Chill: 23°   Ceiling: Unl
Heat Index: 23°   Visibility: 6mi
Dew Point: 23°   Wind: 8mph
Humidity: 97%   Direction: 350°N
Pressure: 29.91"   Gusts: NA
Location:  18.2°N, 73.75°W
Report Text: MUGM 210956Z 35007KT 9999 FEW280 23/23 A2991 RMK SLP127 T02330228
Loading
Personal Weather Stations






























Interactive Weather Map
Tropical Storm Tracking
New forecast layout! Learn more

10-Day Weather Forecast

Advertisements
Track Severe Weather on mobile